Time;durP1;ratioP1;P1;durP2;ratioP2;P2;SDS_P1;SDS_P2;PMS_P1;PMS_P2;Temp;Humidity;BMP_temperature;BMP_pressure;BME280_temperature;BME280_humidity;BME280_pressure;Samples;Min_cycle;Max_cycle;Signal;HPM_P1;HPM_P2
2023/12/07 00:01:35;;;;;;;3.75;2.20;;;;;;;;;;5066689;28;20029;-57
2023/12/07 00:04:00;;;;;;;4.10;2.42;;;;;;;;;;5067003;28;20553;-57
2023/12/07 00:06:26;;;;;;;3.55;2.33;;;;;;;;;;5066925;28;20028;-57
2023/12/07 00:08:51;;;;;;;4.10;2.17;;;;;;;;;;5065623;28;20505;-57
2023/12/07 00:11:17;;;;;;;3.78;2.08;;;;;;;;;;5067937;28;20154;-57
2023/12/07 00:13:42;;;;;;;2.97;2.10;;;;;;;;;;5057214;28;20970;-56
2023/12/07 00:16:07;;;;;;;2.70;1.90;;;;;;;;;;5060821;28;20036;-56
2023/12/07 00:18:33;;;;;;;3.65;2.30;;;;;;;;;;5064471;28;20764;-56
2023/12/07 00:20:58;;;;;;;3.22;2.30;;;;;;;;;;5047678;28;20090;-57
2023/12/07 00:23:23;;;;;;;3.45;2.33;;;;;;;;;;5065929;28;20113;-56
2023/12/07 00:25:49;;;;;;;3.28;2.10;;;;;;;;;;5065344;28;20064;-56
2023/12/07 00:28:14;;;;;;;3.35;1.98;;;;;;;;;;5063418;28;20033;-57
2023/12/07 00:30:39;;;;;;;4.22;2.40;;;;;;;;;;5063874;28;20568;-57
2023/12/07 00:33:04;;;;;;;3.20;2.20;;;;;;;;;;5062407;28;20060;-57
2023/12/07 00:35:30;;;;;;;3.13;2.20;;;;;;;;;;5063931;28;20056;-56
2023/12/07 00:37:56;;;;;;;3.95;2.50;;;;;;;;;;5064871;28;20514;-57
2023/12/07 00:40:22;;;;;;;3.58;2.40;;;;;;;;;;5062893;28;20037;-56
2023/12/07 00:42:47;;;;;;;3.55;2.05;;;;;;;;;;5064393;28;20455;-56
2023/12/07 00:45:13;;;;;;;4.28;2.45;;;;;;;;;;5064787;28;20071;-56
2023/12/07 00:47:38;;;;;;;3.13;2.13;;;;;;;;;;5063726;28;20427;-56
2023/12/07 00:50:03;;;;;;;3.28;2.30;;;;;;;;;;5046747;28;20041;-56
2023/12/07 00:52:29;;;;;;;3.00;2.17;;;;;;;;;;5065096;28;20036;-57
2023/12/07 00:54:54;;;;;;;3.50;2.17;;;;;;;;;;5065831;28;20094;-56
2023/12/07 00:57:19;;;;;;;3.35;2.38;;;;;;;;;;5063898;28;20037;-56
2023/12/07 00:59:45;;;;;;;3.35;2.10;;;;;;;;;;5064439;28;20735;-57
2023/12/07 01:02:10;;;;;;;3.53;2.30;;;;;;;;;;5047406;28;20043;-57
2023/12/07 01:04:35;;;;;;;4.05;2.22;;;;;;;;;;5064354;28;20048;-57
2023/12/07 01:07:01;;;;;;;3.50;2.30;;;;;;;;;;5046444;28;20032;-59
2023/12/07 01:09:26;;;;;;;3.08;2.30;;;;;;;;;;5064707;28;20037;-56
2023/12/07 01:11:51;;;;;;;3.55;2.47;;;;;;;;;;5064217;28;20036;-56
2023/12/07 01:14:17;;;;;;;2.95;2.03;;;;;;;;;;5064884;28;20464;-57
2023/12/07 01:16:42;;;;;;;3.30;2.20;;;;;;;;;;5064221;28;20836;-57
2023/12/07 01:19:08;;;;;;;4.53;2.53;;;;;;;;;;5065418;28;20028;-56
2023/12/07 01:21:33;;;;;;;3.03;2.15;;;;;;;;;;5063364;28;20029;-57
2023/12/07 01:23:58;;;;;;;3.03;2.20;;;;;;;;;;5043356;28;20414;-55
2023/12/07 01:26:24;;;;;;;3.58;2.30;;;;;;;;;;5064269;28;20048;-56
2023/12/07 01:28:49;;;;;;;3.45;2.28;;;;;;;;;;5052066;28;20037;-56
2023/12/07 01:31:14;;;;;;;3.70;2.58;;;;;;;;;;5050708;28;20205;-56
2023/12/07 01:33:40;;;;;;;3.25;2.50;;;;;;;;;;5060110;28;20028;-56
2023/12/07 01:36:05;;;;;;;3.50;2.47;;;;;;;;;;5063568;28;20036;-56
2023/12/07 01:38:31;;;;;;;3.55;2.30;;;;;;;;;;5064434;28;20032;-56
2023/12/07 01:40:56;;;;;;;3.53;2.40;;;;;;;;;;5064999;28;20174;-56
2023/12/07 01:43:22;;;;;;;3.72;2.28;;;;;;;;;;5064013;28;20079;-57
2023/12/07 01:45:47;;;;;;;4.05;2.45;;;;;;;;;;5064480;28;20033;-56
2023/12/07 01:48:12;;;;;;;3.78;2.40;;;;;;;;;;5047141;28;20035;-56
2023/12/07 01:50:38;;;;;;;3.40;2.35;;;;;;;;;;5064362;28;20039;-56
2023/12/07 01:53:03;;;;;;;3.35;2.38;;;;;;;;;;5065166;28;20060;-56
2023/12/07 01:55:29;;;;;;;3.72;2.78;;;;;;;;;;5063958;28;20532;-56
2023/12/07 01:57:54;;;;;;;3.05;2.42;;;;;;;;;;5065095;28;20400;-56
2023/12/07 02:00:19;;;;;;;3.30;2.78;;;;;;;;;;5064241;28;20383;-56
2023/12/07 02:02:45;;;;;;;4.43;2.60;;;;;;;;;;5063470;28;20486;-56
2023/12/07 02:05:10;;;;;;;3.60;2.38;;;;;;;;;;5064627;28;20048;-57
2023/12/07 02:07:36;;;;;;;3.67;2.55;;;;;;;;;;5046437;28;20037;-56
2023/12/07 02:10:01;;;;;;;3.75;2.40;;;;;;;;;;5064717;28;20051;-57
2023/12/07 02:12:29;;;;;;;3.70;2.80;;;;;;;;;;5044654;28;20083;-56
2023/12/07 02:14:54;;;;;;;3.10;2.30;;;;;;;;;;5065075;28;20037;-57
2023/12/07 02:17:20;;;;;;;4.47;2.72;;;;;;;;;;5047018;28;20705;-56
2023/12/07 02:19:57;;;;;;;3.35;2.78;;;;;;;;;;5065743;28;20071;-56
2023/12/07 02:22:32;;;;;;;3.90;2.80;;;;;;;;;;5062312;28;20041;-58
2023/12/07 02:25:07;;;;;;;3.60;2.70;;;;;;;;;;5045834;28;20160;-57
2023/12/07 02:27:36;;;;;;;4.22;2.63;;;;;;;;;;5063595;28;20068;-56
2023/12/07 02:30:01;;;;;;;4.15;2.78;;;;;;;;;;5065103;28;20044;-57
2023/12/07 02:32:27;;;;;;;3.63;2.85;;;;;;;;;;5065394;28;20028;-56
2023/12/07 02:34:52;;;;;;;4.63;2.63;;;;;;;;;;5065335;28;20465;-56
2023/12/07 02:37:17;;;;;;;3.92;2.90;;;;;;;;;;5064742;28;20041;-57
2023/12/07 02:39:42;;;;;;;3.42;3.03;;;;;;;;;;5047158;28;20035;-56
2023/12/07 02:42:08;;;;;;;3.80;2.78;;;;;;;;;;5065297;28;20047;-56
2023/12/07 02:44:33;;;;;;;4.65;3.03;;;;;;;;;;5044759;28;20052;-56
2023/12/07 02:46:58;;;;;;;3.75;2.88;;;;;;;;;;5064044;28;20429;-56
2023/12/07 02:49:24;;;;;;;4.15;2.88;;;;;;;;;;5047526;28;20039;-56
2023/12/07 02:51:49;;;;;;;4.85;3.00;;;;;;;;;;5064436;28;20029;-57
2023/12/07 02:54:15;;;;;;;3.83;2.63;;;;;;;;;;5064723;28;20044;-56
2023/12/07 02:56:40;;;;;;;3.55;2.90;;;;;;;;;;5064347;28;20049;-56
2023/12/07 02:59:05;;;;;;;4.30;3.00;;;;;;;;;;5065659;28;20530;-56
2023/12/07 03:01:30;;;;;;;5.45;3.30;;;;;;;;;;5059807;28;20037;-56
2023/12/07 03:03:56;;;;;;;3.83;2.95;;;;;;;;;;5057537;28;20052;-57
2023/12/07 03:06:21;;;;;;;4.15;2.90;;;;;;;;;;5064971;28;20468;-56
2023/12/07 03:08:46;;;;;;;4.15;3.00;;;;;;;;;;5065035;28;20124;-57
2023/12/07 03:11:12;;;;;;;3.85;3.05;;;;;;;;;;5046876;28;20311;-57
2023/12/07 03:13:37;;;;;;;3.88;2.72;;;;;;;;;;5061940;28;20503;-55
2023/12/07 03:16:06;;;;;;;4.32;3.13;;;;;;;;;;5064664;28;20075;-56
2023/12/07 03:18:31;;;;;;;3.80;2.80;;;;;;;;;;5064114;28;20044;-56
2023/12/07 03:20:57;;;;;;;4.28;2.90;;;;;;;;;;5064549;28;20513;-56
2023/12/07 03:23:22;;;;;;;4.10;2.85;;;;;;;;;;5064057;28;20036;-56
2023/12/07 03:25:47;;;;;;;4.13;2.90;;;;;;;;;;5046686;28;20359;-57
2023/12/07 03:28:13;;;;;;;4.45;3.50;;;;;;;;;;5065206;28;20064;-56
2023/12/07 03:30:38;;;;;;;4.03;3.00;;;;;;;;;;5046182;28;20035;-56
2023/12/07 03:33:03;;;;;;;4.32;3.03;;;;;;;;;;5063534;28;20032;-54
2023/12/07 03:35:28;;;;;;;4.22;3.20;;;;;;;;;;5063732;28;20037;-56
2023/12/07 03:37:54;;;;;;;3.97;3.20;;;;;;;;;;5065045;28;20048;-56
2023/12/07 03:40:19;;;;;;;4.13;3.15;;;;;;;;;;5064452;28;20478;-55
2023/12/07 03:42:44;;;;;;;4.68;3.03;;;;;;;;;;5064995;28;20029;-56
2023/12/07 03:45:10;;;;;;;4.35;3.15;;;;;;;;;;5067203;28;20095;-57
2023/12/07 03:47:35;;;;;;;4.90;3.42;;;;;;;;;;5050262;28;20517;-56
2023/12/07 03:50:00;;;;;;;4.47;3.10;;;;;;;;;;5068046;28;20037;-57
2023/12/07 03:52:26;;;;;;;3.92;3.30;;;;;;;;;;5066944;28;20028;-56
2023/12/07 03:54:51;;;;;;;4.22;3.17;;;;;;;;;;5068010;28;20039;-57
2023/12/07 03:57:16;;;;;;;4.65;3.50;;;;;;;;;;5067872;28;20059;-56
2023/12/07 03:59:42;;;;;;;3.70;2.90;;;;;;;;;;5067972;28;20374;-56
2023/12/07 04:02:07;;;;;;;4.32;3.33;;;;;;;;;;5064094;28;20028;-56
2023/12/07 04:04:32;;;;;;;4.20;3.22;;;;;;;;;;5066096;28;20051;-57
2023/12/07 04:06:58;;;;;;;3.92;3.10;;;;;;;;;;5067413;28;20106;-56
2023/12/07 04:09:23;;;;;;;3.95;3.15;;;;;;;;;;5067077;28;20068;-57
2023/12/07 04:11:48;;;;;;;4.07;2.97;;;;;;;;;;5043589;28;20075;-56
2023/12/07 04:14:15;;;;;;;3.97;3.00;;;;;;;;;;5066173;28;20139;-57
2023/12/07 04:16:40;;;;;;;4.60;3.42;;;;;;;;;;5066489;28;20049;-57
2023/12/07 04:19:05;;;;;;;4.57;3.40;;;;;;;;;;5068305;28;20150;-57
2023/12/07 04:21:30;;;;;;;4.18;3.10;;;;;;;;;;5072913;28;20060;-57
2023/12/07 04:23:56;;;;;;;3.67;2.88;;;;;;;;;;5074910;28;20060;-57
2023/12/07 04:26:21;;;;;;;3.88;2.95;;;;;;;;;;5072483;28;21422;-56
2023/12/07 04:28:46;;;;;;;4.13;3.00;;;;;;;;;;5055769;28;20119;-56
2023/12/07 04:31:12;;;;;;;3.67;3.05;;;;;;;;;;5071261;28;20562;-56
2023/12/07 04:33:37;;;;;;;4.30;3.33;;;;;;;;;;5066245;28;20040;-56
2023/12/07 04:36:04;;;;;;;4.30;3.15;;;;;;;;;;5067054;28;20032;-57
2023/12/07 04:38:29;;;;;;;3.70;3.20;;;;;;;;;;5066408;28;20430;-57
2023/12/07 04:40:55;;;;;;;4.88;3.45;;;;;;;;;;5048581;28;20031;-57
2023/12/07 04:43:20;;;;;;;4.90;3.38;;;;;;;;;;5066046;28;20037;-56
2023/12/07 04:45:45;;;;;;;4.00;3.05;;;;;;;;;;5061285;28;20048;-57
2023/12/07 04:48:10;;;;;;;4.40;3.50;;;;;;;;;;5048491;28;20036;-56
2023/12/07 04:50:36;;;;;;;4.07;3.20;;;;;;;;;;5041531;28;20276;-56
2023/12/07 04:53:01;;;;;;;4.45;3.58;;;;;;;;;;5066923;28;20051;-57
2023/12/07 04:55:26;;;;;;;4.88;3.42;;;;;;;;;;5066778;28;20040;-56
2023/12/07 04:57:52;;;;;;;4.07;3.17;;;;;;;;;;5065139;28;20070;-56
2023/12/07 05:00:17;;;;;;;5.30;3.63;;;;;;;;;;5050884;28;20423;-57
2023/12/07 05:02:43;;;;;;;3.90;3.25;;;;;;;;;;5052501;28;20048;-57
2023/12/07 05:05:08;;;;;;;3.85;3.00;;;;;;;;;;5056033;28;20149;-57
2023/12/07 05:07:34;;;;;;;4.53;3.30;;;;;;;;;;5066451;28;20033;-56
2023/12/07 05:09:59;;;;;;;5.05;3.42;;;;;;;;;;5066318;28;20033;-57
2023/12/07 05:12:24;;;;;;;4.00;3.08;;;;;;;;;;5065460;28;20036;-57
2023/12/07 05:14:50;;;;;;;4.78;3.70;;;;;;;;;;5065730;28;20614;-56
2023/12/07 05:17:15;;;;;;;3.85;2.53;;;;;;;;;;5061106;28;20127;-56
2023/12/07 05:19:40;;;;;;;4.65;3.15;;;;;;;;;;5046226;28;20056;-56
2023/12/07 05:22:06;;;;;;;3.85;2.90;;;;;;;;;;5066329;28;20032;-57
2023/12/07 05:24:34;;;;;;;4.10;3.10;;;;;;;;;;5060418;28;20527;-57
2023/12/07 05:26:59;;;;;;;4.22;3.03;;;;;;;;;;5062294;28;20025;-56
2023/12/07 05:29:24;;;;;;;3.78;3.10;;;;;;;;;;5066349;28;20032;-57
2023/12/07 05:31:53;;;;;;;3.45;2.58;;;;;;;;;;5047777;28;20302;-57
2023/12/07 05:34:18;;;;;;;4.20;3.22;;;;;;;;;;5065138;28;20060;-57
2023/12/07 05:36:44;;;;;;;4.40;3.33;;;;;;;;;;5064472;28;20075;-57
2023/12/07 05:39:11;;;;;;;5.20;3.13;;;;;;;;;;5065630;28;20033;-57
2023/12/07 05:41:36;;;;;;;4.50;3.30;;;;;;;;;;5065728;28;20068;-56
2023/12/07 05:44:01;;;;;;;3.97;3.15;;;;;;;;;;5048201;28;20558;-57
2023/12/07 05:46:27;;;;;;;5.10;3.30;;;;;;;;;;5064814;28;20045;-57
2023/12/07 05:48:52;;;;;;;3.63;2.90;;;;;;;;;;5065484;28;20029;-56
2023/12/07 05:51:18;;;;;;;4.70;3.75;;;;;;;;;;5064851;28;20469;-57
2023/12/07 05:53:43;;;;;;;5.55;3.03;;;;;;;;;;5065571;28;20028;-56
2023/12/07 05:56:09;;;;;;;4.40;3.10;;;;;;;;;;5064471;28;20144;-56
2023/12/07 05:58:34;;;;;;;3.70;3.00;;;;;;;;;;5065337;28;20048;-57
2023/12/07 06:01:00;;;;;;;5.40;3.35;;;;;;;;;;5063151;28;20037;-56
2023/12/07 06:03:25;;;;;;;4.25;3.25;;;;;;;;;;5045610;28;20449;-57
2023/12/07 06:05:51;;;;;;;4.45;3.00;;;;;;;;;;5064390;28;20052;-57
2023/12/07 06:08:16;;;;;;;3.92;3.17;;;;;;;;;;5063483;28;20036;-57
2023/12/07 06:10:41;;;;;;;4.03;3.20;;;;;;;;;;5062389;28;20033;-57
2023/12/07 06:13:07;;;;;;;3.70;3.00;;;;;;;;;;5062851;28;20036;-56
2023/12/07 06:15:33;;;;;;;4.38;3.00;;;;;;;;;;5064896;28;20071;-57
2023/12/07 06:17:58;;;;;;;4.30;3.05;;;;;;;;;;5055342;28;20044;-57
2023/12/07 06:20:23;;;;;;;3.83;2.72;;;;;;;;;;5049076;28;20060;-56
2023/12/07 06:22:49;;;;;;;4.47;3.15;;;;;;;;;;5048785;28;20063;-57
2023/12/07 06:25:14;;;;;;;5.22;3.40;;;;;;;;;;5051478;28;20071;-57
2023/12/07 06:27:40;;;;;;;3.60;2.97;;;;;;;;;;5033724;28;20118;-57
2023/12/07 06:30:05;;;;;;;5.05;3.15;;;;;;;;;;5034395;28;20119;-57
2023/12/07 06:32:31;;;;;;;4.88;3.00;;;;;;;;;;5035272;28;20036;-58
2023/12/07 06:34:56;;;;;;;4.53;3.35;;;;;;;;;;5052119;28;20036;-56
2023/12/07 06:37:22;;;;;;;4.30;2.92;;;;;;;;;;5050749;28;20474;-56
2023/12/07 06:39:48;;;;;;;5.03;3.03;;;;;;;;;;5050181;28;20036;-55
2023/12/07 06:42:14;;;;;;;4.20;3.03;;;;;;;;;;5051468;28;20662;-56
2023/12/07 06:44:39;;;;;;;4.68;3.08;;;;;;;;;;5050170;28;20059;-56
2023/12/07 06:47:05;;;;;;;4.25;2.97;;;;;;;;;;5036567;28;20633;-56
2023/12/07 06:49:31;;;;;;;4.03;2.83;;;;;;;;;;5051096;28;20068;-56
2023/12/07 06:51:56;;;;;;;4.80;3.20;;;;;;;;;;5049239;28;20038;-56
2023/12/07 06:54:21;;;;;;;4.75;3.13;;;;;;;;;;5050343;28;20033;-55
2023/12/07 06:56:47;;;;;;;4.55;3.08;;;;;;;;;;5047770;28;20052;-55
2023/12/07 06:59:12;;;;;;;3.67;2.75;;;;;;;;;;5050166;28;20052;-55
2023/12/07 07:01:38;;;;;;;4.85;3.00;;;;;;;;;;5050230;28;20045;-55
2023/12/07 07:04:03;;;;;;;4.90;2.92;;;;;;;;;;5049335;28;20115;-55
2023/12/07 07:06:29;;;;;;;4.50;3.08;;;;;;;;;;5049233;28;20107;-55
2023/12/07 07:08:54;;;;;;;3.67;2.78;;;;;;;;;;5050001;28;20048;-56
2023/12/07 07:11:19;;;;;;;4.00;3.03;;;;;;;;;;5048307;28;20441;-55
2023/12/07 07:13:45;;;;;;;5.63;2.97;;;;;;;;;;5050507;28;20402;-56
2023/12/07 07:16:10;;;;;;;4.38;3.03;;;;;;;;;;5051024;28;20036;-56
2023/12/07 07:18:37;;;;;;;5.63;2.90;;;;;;;;;;5051440;28;20083;-56
2023/12/07 07:21:04;;;;;;;4.45;3.13;;;;;;;;;;5036056;28;20029;-57
2023/12/07 07:23:29;;;;;;;4.93;2.97;;;;;;;;;;5063581;28;20494;-57
2023/12/07 07:25:54;;;;;;;3.90;2.90;;;;;;;;;;5062572;28;20055;-56
2023/12/07 07:28:20;;;;;;;4.15;3.00;;;;;;;;;;5064210;28;20190;-57
2023/12/07 07:30:45;;;;;;;5.10;2.90;;;;;;;;;;5064198;28;20090;-57
2023/12/07 07:33:11;;;;;;;4.82;2.90;;;;;;;;;;5066163;28;20140;-57
2023/12/07 07:35:36;;;;;;;4.55;2.83;;;;;;;;;;5056012;28;20045;-57
2023/12/07 07:38:01;;;;;;;4.10;2.60;;;;;;;;;;5056266;28;20056;-57
2023/12/07 07:40:26;;;;;;;6.07;2.88;;;;;;;;;;5054006;28;20491;-58
2023/12/07 07:42:52;;;;;;;4.30;2.67;;;;;;;;;;5054859;28;20036;-56
2023/12/07 07:45:17;;;;;;;4.10;2.95;;;;;;;;;;5041593;28;20132;-57
2023/12/07 07:47:43;;;;;;;4.22;2.75;;;;;;;;;;5023999;28;20136;-60
2023/12/07 07:50:10;;;;;;;3.90;2.58;;;;;;;;;;5055276;28;20499;-59
2023/12/07 07:52:35;;;;;;;3.85;2.60;;;;;;;;;;5054854;28;20429;-59
2023/12/07 07:55:02;;;;;;;5.15;2.97;;;;;;;;;;5055054;28;20029;-57
2023/12/07 07:57:28;;;;;;;3.50;2.40;;;;;;;;;;5058881;28;20217;-58
2023/12/07 07:59:53;;;;;;;4.25;2.65;;;;;;;;;;5055551;28;20364;-57
2023/12/07 08:02:18;;;;;;;4.60;2.97;;;;;;;;;;5053719;28;20033;-57
2023/12/07 08:04:44;;;;;;;5.05;2.80;;;;;;;;;;5040414;28;20718;-57
2023/12/07 08:07:11;;;;;;;4.57;2.53;;;;;;;;;;5037458;28;20008;-57
2023/12/07 08:09:36;;;;;;;4.82;2.70;;;;;;;;;;5054850;28;20021;-57
2023/12/07 08:12:01;;;;;;;5.55;2.70;;;;;;;;;;5054179;28;20067;-58
2023/12/07 08:14:27;;;;;;;3.80;2.33;;;;;;;;;;5056658;28;20080;-58
2023/12/07 08:16:52;;;;;;;3.40;2.55;;;;;;;;;;5055347;28;20082;-59
2023/12/07 08:19:19;;;;;;;4.30;2.63;;;;;;;;;;5053175;28;20035;-58
2023/12/07 08:21:44;;;;;;;3.67;2.40;;;;;;;;;;5053552;28;20037;-58
2023/12/07 08:24:09;;;;;;;3.55;2.38;;;;;;;;;;5054000;28;21067;-58
2023/12/07 08:26:35;;;;;;;4.93;2.88;;;;;;;;;;5054712;28;20361;-58
2023/12/07 08:29:00;;;;;;;4.05;2.70;;;;;;;;;;5051612;28;20032;-57
2023/12/07 08:31:25;;;;;;;4.07;2.90;;;;;;;;;;5054182;28;20017;-58
2023/12/07 08:33:51;;;;;;;3.72;2.25;;;;;;;;;;5054987;28;20106;-58
2023/12/07 08:36:16;;;;;;;3.58;2.50;;;;;;;;;;5053711;28;20051;-58
2023/12/07 08:38:42;;;;;;;3.75;2.53;;;;;;;;;;5054743;28;20103;-57
2023/12/07 08:41:07;;;;;;;3.45;2.75;;;;;;;;;;5034798;28;20028;-59
2023/12/07 08:43:32;;;;;;;4.20;2.58;;;;;;;;;;5055537;28;20037;-57
2023/12/07 08:45:58;;;;;;;3.63;2.60;;;;;;;;;;5053858;28;20105;-57
2023/12/07 08:48:23;;;;;;;3.65;2.53;;;;;;;;;;5054378;28;20025;-57
2023/12/07 08:50:48;;;;;;;3.83;2.65;;;;;;;;;;5038792;28;20024;-58
2023/12/07 08:53:13;;;;;;;4.53;2.75;;;;;;;;;;5019909;28;20020;-58
2023/12/07 08:55:39;;;;;;;4.18;2.50;;;;;;;;;;5040004;28;20020;-58
2023/12/07 08:58:05;;;;;;;4.15;2.80;;;;;;;;;;5053427;28;20060;-58
2023/12/07 09:00:31;;;;;;;4.72;2.60;;;;;;;;;;5052671;28;20021;-58
2023/12/07 09:02:56;;;;;;;3.90;2.50;;;;;;;;;;5053425;28;20470;-57
2023/12/07 09:05:21;;;;;;;3.83;2.63;;;;;;;;;;5041071;28;20039;-58
2023/12/07 09:07:47;;;;;;;3.40;2.40;;;;;;;;;;5023987;28;20016;-59
2023/12/07 09:10:12;;;;;;;3.63;2.60;;;;;;;;;;5039479;28;20090;-60
2023/12/07 09:12:38;;;;;;;3.63;2.53;;;;;;;;;;5046038;28;22953;-58
2023/12/07 09:15:03;;;;;;;3.78;2.60;;;;;;;;;;5047639;28;20422;-58
2023/12/07 09:17:29;;;;;;;4.18;2.70;;;;;;;;;;5029875;28;20055;-58
2023/12/07 09:19:54;;;;;;;3.50;2.47;;;;;;;;;;5066525;28;20033;-57
2023/12/07 09:22:20;;;;;;;3.90;2.55;;;;;;;;;;5025192;28;20128;-58
2023/12/07 09:24:46;;;;;;;3.63;2.40;;;;;;;;;;5065685;28;20040;-60
2023/12/07 09:27:11;;;;;;;3.97;2.40;;;;;;;;;;5033123;28;20104;-60
2023/12/07 09:29:37;;;;;;;4.03;2.53;;;;;;;;;;5068696;28;20497;-59
2023/12/07 09:32:02;;;;;;;3.72;2.40;;;;;;;;;;5066485;28;20044;-60
2023/12/07 09:34:28;;;;;;;3.72;2.30;;;;;;;;;;5046401;28;20032;-59
2023/12/07 09:37:06;;;;;;;3.40;2.58;;;;;;;;;;5044769;28;20041;-58
2023/12/07 09:39:32;;;;;;;4.43;2.70;;;;;;;;;;5049104;28;20406;-59
2023/12/07 09:41:57;;;;;;;4.43;2.47;;;;;;;;;;5047389;28;20044;-58
2023/12/07 09:44:22;;;;;;;3.80;2.50;;;;;;;;;;5029142;28;20585;-58
2023/12/07 09:46:47;;;;;;;3.20;2.47;;;;;;;;;;5015017;28;20120;-57
2023/12/07 09:49:13;;;;;;;4.13;2.58;;;;;;;;;;5061206;28;22196;-58
2023/12/07 09:51:38;;;;;;;3.70;2.28;;;;;;;;;;5065127;28;20093;-58
2023/12/07 09:54:04;;;;;;;3.45;2.40;;;;;;;;;;5038868;28;20106;-58
2023/12/07 09:56:29;;;;;;;3.20;2.25;;;;;;;;;;5044886;28;20491;-58
2023/12/07 09:58:54;;;;;;;3.28;2.08;;;;;;;;;;5064982;28;20525;-58
2023/12/07 10:01:20;;;;;;;3.75;2.25;;;;;;;;;;5064228;28;20070;-58
2023/12/07 10:03:46;;;;;;;3.50;2.45;;;;;;;;;;5047154;28;20094;-58
2023/12/07 10:06:12;;;;;;;4.28;2.17;;;;;;;;;;5046811;28;20582;-58
2023/12/07 10:08:37;;;;;;;3.55;2.38;;;;;;;;;;5047084;28;20258;-58
2023/12/07 10:11:09;;;;;;;5.40;2.30;;;;;;;;;;5042432;28;20060;-58
2023/12/07 10:13:35;;;;;;;3.95;2.35;;;;;;;;;;5063175;28;20115;-57
2023/12/07 10:16:08;;;;;;;3.22;1.95;;;;;;;;;;5043304;28;20598;-57
2023/12/07 10:18:34;;;;;;;3.72;2.30;;;;;;;;;;5064400;28;20047;-57
2023/12/07 10:20:59;;;;;;;3.95;2.33;;;;;;;;;;5045014;28;20033;-57
2023/12/07 10:23:27;;;;;;;3.13;1.90;;;;;;;;;;5043211;28;20411;-57
2023/12/07 10:25:52;;;;;;;3.33;2.15;;;;;;;;;;5056045;28;20068;-58
2023/12/07 10:28:19;;;;;;;3.30;2.08;;;;;;;;;;5059828;28;20512;-59
2023/12/07 10:30:44;;;;;;;4.00;2.22;;;;;;;;;;5065202;28;20060;-56
2023/12/07 10:33:09;;;;;;;2.65;2.00;;;;;;;;;;5064052;28;20478;-57
2023/12/07 10:35:39;;;;;;;2.80;2.05;;;;;;;;;;5055983;28;20059;-56
2023/12/07 10:38:04;;;;;;;3.45;2.22;;;;;;;;;;5060890;28;20044;-57
2023/12/07 10:40:30;;;;;;;2.28;1.83;;;;;;;;;;5062756;28;20597;-59
2023/12/07 10:42:57;;;;;;;2.70;2.03;;;;;;;;;;5065698;28;20036;-56
2023/12/07 10:45:24;;;;;;;2.60;1.90;;;;;;;;;;5045341;28;20053;-57
2023/12/07 10:47:50;;;;;;;2.58;1.77;;;;;;;;;;5035730;28;20035;-56
2023/12/07 10:50:16;;;;;;;3.55;2.08;;;;;;;;;;5039724;28;20041;-58
2023/12/07 10:52:45;;;;;;;3.25;1.88;;;;;;;;;;5046166;28;20036;-59
2023/12/07 10:55:13;;;;;;;3.22;2.08;;;;;;;;;;5062810;28;20032;-59
2023/12/07 10:57:39;;;;;;;3.00;1.65;;;;;;;;;;5062218;28;20056;-59
2023/12/07 11:00:05;;;;;;;3.63;1.85;;;;;;;;;;5054213;28;20522;-58
2023/12/07 11:02:32;;;;;;;3.47;2.20;;;;;;;;;;5054398;28;20117;-58
2023/12/07 11:04:57;;;;;;;2.58;1.80;;;;;;;;;;5055477;28;20040;-58
2023/12/07 11:07:23;;;;;;;2.85;1.85;;;;;;;;;;5063226;28;20520;-59
2023/12/07 11:09:51;;;;;;;2.58;1.60;;;;;;;;;;5056830;28;20037;-56
2023/12/07 11:12:37;;;;;;;2.78;1.90;;;;;;;;;;5043925;28;20077;-56
2023/12/07 11:15:02;;;;;;;2.40;1.80;;;;;;;;;;5050279;28;20529;-56
2023/12/07 11:17:27;;;;;;;2.55;1.80;;;;;;;;;;5059157;28;20032;-55
2023/12/07 11:19:53;;;;;;;2.70;1.90;;;;;;;;;;5064343;28;20041;-57
2023/12/07 11:22:18;;;;;;;3.50;1.83;;;;;;;;;;5043238;28;20582;-57
2023/12/07 11:24:58;;;;;;;2.58;1.60;;;;;;;;;;5052500;28;20172;-56
2023/12/07 11:27:24;;;;;;;2.38;1.67;;;;;;;;;;5046328;28;20037;-58
2023/12/07 11:29:49;;;;;;;2.60;1.73;;;;;;;;;;5064473;28;20048;-58
2023/12/07 11:32:14;;;;;;;1.80;1.30;;;;;;;;;;5061721;28;20099;-59
2023/12/07 11:34:40;;;;;;;2.55;1.73;;;;;;;;;;5031757;28;20114;-59
2023/12/07 11:37:06;;;;;;;3.53;1.70;;;;;;;;;;5061660;28;20478;-58
2023/12/07 11:39:35;;;;;;;2.00;1.58;;;;;;;;;;5064843;28;20127;-59
2023/12/07 11:42:10;;;;;;;2.72;1.70;;;;;;;;;;5059942;28;20032;-59
2023/12/07 11:44:39;;;;;;;2.47;1.50;;;;;;;;;;5064296;28;20040;-58
2023/12/07 11:47:05;;;;;;;2.67;1.50;;;;;;;;;;5064822;28;20113;-59
2023/12/07 11:49:31;;;;;;;2.60;1.50;;;;;;;;;;5063291;28;20048;-59
2023/12/07 11:51:56;;;;;;;2.45;1.30;;;;;;;;;;5064629;28;20453;-59
2023/12/07 11:54:22;;;;;;;2.08;1.38;;;;;;;;;;5063474;28;20017;-59
2023/12/07 11:56:51;;;;;;;1.85;1.40;;;;;;;;;;5065682;28;20017;-60
2023/12/07 11:59:17;;;;;;;2.17;1.40;;;;;;;;;;5064084;28;20021;-59
2023/12/07 12:01:46;;;;;;;2.33;1.15;;;;;;;;;;5059077;28;20127;-59
2023/12/07 12:04:11;;;;;;;2.80;1.67;;;;;;;;;;5067261;28;20492;-60
2023/12/07 12:06:36;;;;;;;2.47;1.23;;;;;;;;;;5068066;28;20036;-59
2023/12/07 12:09:02;;;;;;;2.42;1.50;;;;;;;;;;5068436;28;20013;-59
2023/12/07 12:11:27;;;;;;;1.85;1.05;;;;;;;;;;5055619;28;20092;-59
2023/12/07 12:13:52;;;;;;;1.75;1.20;;;;;;;;;;5058726;28;20459;-59
2023/12/07 12:16:18;;;;;;;2.42;1.27;;;;;;;;;;5066227;28;23373;-60
2023/12/07 12:18:43;;;;;;;2.08;1.30;;;;;;;;;;5066772;28;20048;-59
2023/12/07 12:21:09;;;;;;;2.95;1.35;;;;;;;;;;5068599;28;20040;-60
2023/12/07 12:23:34;;;;;;;2.42;1.35;;;;;;;;;;5065617;28;20543;-60
2023/12/07 12:25:59;;;;;;;1.80;1.23;;;;;;;;;;5067990;28;20071;-60
2023/12/07 12:28:25;;;;;;;1.75;1.25;;;;;;;;;;5049370;28;20111;-59
2023/12/07 12:30:50;;;;;;;1.83;1.13;;;;;;;;;;5067506;28;20089;-59
2023/12/07 12:33:16;;;;;;;1.60;1.10;;;;;;;;;;5069067;28;20044;-60
2023/12/07 12:35:41;;;;;;;2.03;1.33;;;;;;;;;;5032889;28;20070;-60
2023/12/07 12:38:10;;;;;;;1.80;1.33;;;;;;;;;;5067792;28;20036;-59
2023/12/07 12:40:36;;;;;;;2.10;1.30;;;;;;;;;;5066892;28;20033;-58
2023/12/07 12:43:01;;;;;;;2.10;1.38;;;;;;;;;;5067761;28;20036;-58
2023/12/07 12:45:26;;;;;;;2.38;1.35;;;;;;;;;;5042868;28;20063;-58
2023/12/07 12:47:52;;;;;;;2.50;1.30;;;;;;;;;;5046306;28;20047;-59
2023/12/07 12:50:33;;;;;;;1.65;1.00;;;;;;;;;;5063203;28;20032;-58
2023/12/07 12:52:59;;;;;;;2.00;1.20;;;;;;;;;;5062627;28;20595;-59
2023/12/07 12:55:28;;;;;;;2.30;1.05;;;;;;;;;;5066783;28;20036;-57
2023/12/07 12:57:54;;;;;;;2.40;1.17;;;;;;;;;;5065674;28;20602;-58
2023/12/07 13:00:19;;;;;;;2.38;1.30;;;;;;;;;;5048916;28;20056;-60
2023/12/07 13:02:45;;;;;;;1.55;1.02;;;;;;;;;;5067594;28;20118;-58
2023/12/07 13:05:10;;;;;;;1.95;1.13;;;;;;;;;;5066175;28;20045;-57
2023/12/07 13:07:35;;;;;;;1.80;1.17;;;;;;;;;;5065262;28;20059;-57
2023/12/07 13:10:01;;;;;;;2.47;1.10;;;;;;;;;;5065835;28;20531;-57
2023/12/07 13:12:27;;;;;;;1.80;1.00;;;;;;;;;;5065411;28;20078;-58
2023/12/07 13:14:53;;;;;;;1.80;1.20;;;;;;;;;;5064304;28;20116;-59
2023/12/07 13:17:18;;;;;;;1.95;1.13;;;;;;;;;;5065025;28;20120;-57
2023/12/07 13:19:44;;;;;;;2.10;1.02;;;;;;;;;;5066194;28;20067;-57
2023/12/07 13:22:09;;;;;;;1.90;1.05;;;;;;;;;;5064671;28;20401;-59
2023/12/07 13:24:35;;;;;;;1.55;0.77;;;;;;;;;;5066174;28;20036;-58
2023/12/07 13:27:00;;;;;;;2.38;1.10;;;;;;;;;;5046575;28;20478;-56
2023/12/07 13:29:25;;;;;;;1.50;0.90;;;;;;;;;;5065492;28;20523;-55
2023/12/07 13:31:51;;;;;;;1.58;0.85;;;;;;;;;;5064300;28;20120;-56
2023/12/07 13:34:16;;;;;;;1.88;1.08;;;;;;;;;;5065815;28;20032;-56
2023/12/07 13:36:41;;;;;;;2.00;1.00;;;;;;;;;;5064310;28;20530;-56
2023/12/07 13:39:08;;;;;;;2.05;0.90;;;;;;;;;;5062025;28;20120;-55
2023/12/07 13:41:33;;;;;;;1.80;1.00;;;;;;;;;;5065387;28;20036;-56
2023/12/07 13:44:01;;;;;;;1.50;0.90;;;;;;;;;;5065400;28;20029;-57
2023/12/07 13:46:26;;;;;;;1.98;1.20;;;;;;;;;;5064183;28;20053;-57
2023/12/07 13:48:51;;;;;;;2.10;1.00;;;;;;;;;;5063167;28;20086;-58
2023/12/07 13:51:17;;;;;;;1.88;1.10;;;;;;;;;;5063696;28;20036;-56
2023/12/07 13:53:43;;;;;;;1.60;0.90;;;;;;;;;;5046756;28;20025;-56
2023/12/07 13:56:08;;;;;;;2.00;0.80;;;;;;;;;;5063170;28;20035;-56
2023/12/07 13:58:35;;;;;;;1.83;1.00;;;;;;;;;;5063947;28;20028;-56
2023/12/07 14:01:01;;;;;;;1.77;1.10;;;;;;;;;;5063489;28;20276;-56
2023/12/07 14:03:26;;;;;;;1.55;0.90;;;;;;;;;;5064080;28;20041;-57
2023/12/07 14:05:51;;;;;;;1.52;0.77;;;;;;;;;;5044923;28;20501;-55
2023/12/07 14:08:17;;;;;;;2.38;1.00;;;;;;;;;;5063577;28;20478;-58
2023/12/07 14:10:42;;;;;;;1.58;0.90;;;;;;;;;;5045886;28;20138;-55
2023/12/07 14:13:09;;;;;;;1.55;1.00;;;;;;;;;;5064229;28;20020;-56
2023/12/07 14:15:35;;;;;;;1.58;1.00;;;;;;;;;;5064035;28;20023;-57
2023/12/07 14:18:00;;;;;;;1.67;1.08;;;;;;;;;;5064187;28;20328;-57
2023/12/07 14:20:27;;;;;;;1.45;0.90;;;;;;;;;;5046163;28;20372;-56
2023/12/07 14:22:53;;;;;;;2.13;0.95;;;;;;;;;;5063778;28;20020;-58
2023/12/07 14:25:18;;;;;;;1.70;1.02;;;;;;;;;;5065843;28;20037;-57
2023/12/07 14:27:45;;;;;;;1.83;0.90;;;;;;;;;;5064612;28;20094;-56
2023/12/07 14:30:10;;;;;;;1.80;0.88;;;;;;;;;;5064912;28;20043;-56
2023/12/07 14:32:35;;;;;;;1.73;1.00;;;;;;;;;;5064329;28;20040;-55
2023/12/07 14:35:01;;;;;;;1.45;0.95;;;;;;;;;;5064072;28;20040;-55